createdAt,value
2023-02-22T00:00:26.226Z,49.40
2023-02-22T00:02:57.298Z,75.00
2023-02-22T00:05:25.920Z,61.33
2023-02-22T00:07:56.337Z,42.17
2023-02-22T00:10:25.460Z,61.47
2023-02-22T00:12:54.708Z,48.07
2023-02-22T00:15:26.101Z,45.83
2023-02-22T00:17:55.636Z,41.10
2023-02-22T00:20:23.917Z,37.73
2023-02-22T00:22:52.756Z,30.30
2023-02-22T00:25:22.511Z,33.27
2023-02-22T00:27:54.051Z,30.47
2023-02-22T00:30:23.530Z,42.53
2023-02-22T00:32:52.582Z,37.43
2023-02-22T00:35:22.845Z,34.73
2023-02-22T00:37:53.010Z,24.33
2023-02-22T00:40:22.491Z,29.53
2023-02-22T00:42:50.664Z,52.47
2023-02-22T00:45:20.708Z,41.63
2023-02-22T00:47:49.799Z,32.60
2023-02-22T00:50:19.139Z,32.63
2023-02-22T00:52:47.785Z,36.30
2023-02-22T00:55:17.211Z,34.20
2023-02-22T00:57:45.775Z,33.60
2023-02-22T01:00:18.967Z,41.40
2023-02-22T01:02:49.334Z,57.53
2023-02-22T01:05:19.082Z,62.10
2023-02-22T01:07:47.440Z,53.30
2023-02-22T01:10:16.140Z,60.17
2023-02-22T01:12:45.069Z,46.80
2023-02-22T01:15:13.642Z,50.57
2023-02-22T01:17:43.899Z,45.33
2023-02-22T01:20:15.240Z,51.53
2023-02-22T01:22:44.821Z,36.77
2023-02-22T01:25:14.528Z,36.37
2023-02-22T01:27:42.613Z,34.23
2023-02-22T01:30:12.281Z,44.87
2023-02-22T01:32:42.174Z,40.40
2023-02-22T01:35:12.293Z,49.57
2023-02-22T01:37:40.634Z,58.40
2023-02-22T01:40:10.654Z,43.30
2023-02-22T01:42:38.511Z,37.53
2023-02-22T01:45:25.416Z,54.20
2023-02-22T01:47:54.129Z,46.03
2023-02-22T01:50:23.302Z,50.53
2023-02-22T01:52:51.831Z,47.17
2023-02-22T01:55:20.547Z,38.97
2023-02-22T01:57:49.472Z,40.17
2023-02-22T02:00:20.373Z,41.10
2023-02-22T02:02:51.705Z,45.13
2023-02-22T02:05:19.879Z,41.47
2023-02-22T02:07:49.740Z,41.70
2023-02-22T02:10:18.327Z,40.87
2023-02-22T02:12:50.848Z,45.97
2023-02-22T02:15:30.045Z,43.60
2023-02-22T02:18:00.755Z,42.40
2023-02-22T02:20:38.978Z,40.10
2023-02-22T02:23:11.967Z,40.93
2023-02-22T02:25:48.029Z,35.33
2023-02-22T02:28:34.555Z,38.43
2023-02-22T02:31:08.292Z,40.07
2023-02-22T02:33:38.565Z,38.93
2023-02-22T02:36:08.472Z,40.60
2023-02-22T02:38:41.488Z,42.87
2023-02-22T02:41:10.970Z,43.10
2023-02-22T02:43:59.429Z,40.07
2023-02-22T02:48:57.475Z,41.02
2023-02-22T02:51:27.338Z,41.37
2023-02-22T02:56:24.084Z,44.58
2023-02-22T02:58:52.989Z,39.20
2023-02-22T03:01:23.092Z,38.10
2023-02-22T03:03:54.080Z,38.40
2023-02-22T03:06:40.324Z,29.27
2023-02-22T03:09:16.756Z,33.17
2023-02-22T03:12:03.267Z,33.50
2023-02-22T03:14:35.508Z,34.80
2023-02-22T03:17:05.066Z,25.87
2023-02-22T03:19:44.336Z,27.97
2023-02-22T03:22:24.974Z,24.13
2023-02-22T03:25:10.090Z,23.03
2023-02-22T03:27:44.366Z,22.27
2023-02-22T03:30:14.608Z,32.27
2023-02-22T03:32:44.606Z,37.00
2023-02-22T03:35:14.665Z,27.60
2023-02-22T03:37:44.859Z,30.80
2023-02-22T03:40:14.453Z,30.27
2023-02-22T03:42:47.648Z,29.30
2023-02-22T03:45:17.555Z,25.93
2023-02-22T03:47:47.595Z,31.03
2023-02-22T03:50:17.291Z,31.87
2023-02-22T03:52:47.343Z,33.63
2023-02-22T03:55:18.344Z,36.00
2023-02-22T03:57:48.575Z,30.13
2023-02-22T04:00:18.891Z,24.73
2023-02-22T04:02:47.604Z,27.90
2023-02-22T04:05:15.763Z,26.47
2023-02-22T04:07:43.832Z,16.40
2023-02-22T04:10:13.228Z,18.17
2023-02-22T04:12:41.903Z,19.30
2023-02-22T04:15:11.029Z,19.53
2023-02-22T04:17:38.994Z,21.40
2023-02-22T04:20:08.047Z,16.40
2023-02-22T04:22:36.562Z,28.17
2023-02-22T04:25:04.624Z,25.27
2023-02-22T04:27:33.004Z,21.37
2023-02-22T04:30:02.310Z,16.90
2023-02-22T04:32:30.888Z,30.47
2023-02-22T04:34:59.417Z,28.73
2023-02-22T04:37:27.352Z,23.83
2023-02-22T04:39:55.938Z,31.47
2023-02-22T04:42:24.554Z,32.10
2023-02-22T04:44:52.680Z,31.97
2023-02-22T04:47:21.466Z,32.30
2023-02-22T04:49:50.159Z,41.97
2023-02-22T04:52:18.068Z,32.90
2023-02-22T04:54:47.223Z,40.60
2023-02-22T04:57:15.825Z,41.77
2023-02-22T04:59:44.516Z,35.60
2023-02-22T05:02:13.184Z,24.73
2023-02-22T05:04:41.401Z,29.40
2023-02-22T05:07:09.433Z,24.30
2023-02-22T05:09:38.062Z,30.87
2023-02-22T05:12:07.102Z,28.57
2023-02-22T05:14:36.093Z,40.63
2023-02-22T05:17:04.991Z,41.20
2023-02-22T05:19:33.526Z,38.73
2023-02-22T05:22:01.638Z,51.17
2023-02-22T05:24:29.711Z,56.97
2023-02-22T05:26:58.306Z,54.87
2023-02-22T05:29:26.673Z,45.93
2023-02-22T05:31:55.206Z,43.30
2023-02-22T05:34:24.672Z,50.60
2023-02-22T05:36:53.353Z,48.63
2023-02-22T05:39:21.333Z,68.43
2023-02-22T05:41:49.393Z,70.53
2023-02-22T05:44:17.361Z,77.63
2023-02-22T05:46:45.471Z,84.17
2023-02-22T05:49:14.228Z,75.93
2023-02-22T05:51:43.076Z,73.87
2023-02-22T05:54:11.501Z,82.90
2023-02-22T05:56:39.321Z,84.67
2023-02-22T05:59:07.763Z,72.93
2023-02-22T06:01:36.287Z,85.53
2023-02-22T06:04:05.376Z,90.47
2023-02-22T06:06:34.172Z,91.30
2023-02-22T06:09:02.115Z,69.73
2023-02-22T06:11:30.672Z,71.67
2023-02-22T06:13:59.438Z,61.13
2023-02-22T06:16:27.888Z,46.90
2023-02-22T06:18:56.727Z,38.50
2023-02-22T06:21:25.415Z,37.33
2023-02-22T06:23:54.146Z,33.20
2023-02-22T06:26:23.606Z,27.33
2023-02-22T06:28:52.083Z,30.27
2023-02-22T06:31:20.821Z,28.37
2023-02-22T06:33:49.777Z,30.50
2023-02-22T06:36:17.614Z,34.17
2023-02-22T06:38:45.640Z,48.50
2023-02-22T06:41:16.412Z,47.53
2023-02-22T06:43:45.700Z,46.53
2023-02-22T06:46:14.020Z,45.70
2023-02-22T06:48:42.698Z,39.43
2023-02-22T06:51:10.651Z,30.03
2023-02-22T06:53:38.725Z,32.60
2023-02-22T06:56:07.124Z,29.73
2023-02-22T06:58:35.924Z,37.43
2023-02-22T07:01:04.239Z,33.30
2023-02-22T07:03:33.147Z,35.73
2023-02-22T07:06:02.929Z,38.50
2023-02-22T07:08:31.641Z,40.57
2023-02-22T07:11:00.208Z,36.10
2023-02-22T07:13:28.764Z,33.47
2023-02-22T07:15:57.465Z,39.43
2023-02-22T07:18:26.695Z,33.50
2023-02-22T07:20:55.340Z,32.00
2023-02-22T07:23:24.822Z,32.33
2023-02-22T07:25:53.584Z,33.83
2023-02-22T07:28:22.240Z,33.00
2023-02-22T07:30:50.153Z,30.97
2023-02-22T07:33:18.762Z,31.50
2023-02-22T07:35:48.349Z,32.27
2023-02-22T07:38:18.268Z,42.47
2023-02-22T07:40:47.109Z,31.33
2023-02-22T07:43:17.278Z,36.30
2023-02-22T07:45:46.278Z,34.77
2023-02-22T07:48:16.914Z,32.97
2023-02-22T07:50:45.790Z,32.23
2023-02-22T07:53:15.637Z,27.13
2023-02-22T07:55:43.789Z,33.67
2023-02-22T07:58:13.788Z,34.60
2023-02-22T08:00:44.320Z,26.53
2023-02-22T08:03:14.784Z,28.00
2023-02-22T08:05:44.999Z,28.77
2023-02-22T08:08:14.610Z,25.90
2023-02-22T08:10:43.281Z,26.40
2023-02-22T08:13:11.555Z,15.63
2023-02-22T08:15:41.096Z,16.50
2023-02-22T08:18:10.772Z,21.27
2023-02-22T08:20:39.974Z,23.63
2023-02-22T08:23:09.442Z,26.47
2023-02-22T08:25:38.382Z,23.83
2023-02-22T08:28:08.416Z,21.60
2023-02-22T08:30:40.084Z,23.43
2023-02-22T08:33:07.844Z,28.43
2023-02-22T08:35:36.183Z,30.87
2023-02-22T08:38:05.731Z,26.07
2023-02-22T08:40:35.810Z,31.60
2023-02-22T08:43:05.431Z,24.77
2023-02-22T08:45:33.909Z,25.77
2023-02-22T08:48:02.752Z,24.17
2023-02-22T08:50:34.538Z,23.20
2023-02-22T08:53:03.676Z,23.07
2023-02-22T08:55:34.177Z,25.10
2023-02-22T08:58:03.583Z,28.03
2023-02-22T09:00:33.756Z,38.37
2023-02-22T09:03:05.245Z,26.30
2023-02-22T09:05:34.884Z,25.97
2023-02-22T09:08:03.721Z,23.33
2023-02-22T09:10:33.751Z,23.70
2023-02-22T09:13:02.805Z,24.23
2023-02-22T09:15:31.894Z,24.37
2023-02-22T09:18:01.684Z,24.10
2023-02-22T09:20:30.505Z,23.57
2023-02-22T09:22:59.991Z,32.00
2023-02-22T09:25:28.938Z,22.70
2023-02-22T09:27:58.421Z,19.20
2023-02-22T09:30:28.764Z,21.97
2023-02-22T09:32:59.116Z,22.57
2023-02-22T09:35:30.640Z,28.53
2023-02-22T09:38:00.761Z,17.47
2023-02-22T09:40:33.241Z,17.63
2023-02-22T09:43:03.374Z,15.63
2023-02-22T09:45:32.913Z,12.07
2023-02-22T09:48:15.138Z,15.37
2023-02-22T09:50:36.225Z,8.60
2023-02-22T09:53:05.694Z,9.33
2023-02-22T09:55:35.612Z,8.90
2023-02-22T09:58:06.825Z,9.60
2023-02-22T10:00:38.026Z,5.80
2023-02-22T10:03:24.787Z,6.40
2023-02-22T10:05:54.963Z,6.63
2023-02-22T10:08:24.257Z,7.50
2023-02-22T10:10:53.839Z,6.00
2023-02-22T10:13:35.992Z,8.40
2023-02-22T10:16:06.294Z,4.53
2023-02-22T10:18:36.803Z,5.97
2023-02-22T10:21:13.876Z,6.53
2023-02-22T10:24:00.204Z,3.03
2023-02-22T10:26:30.274Z,7.03
2023-02-22T10:29:16.794Z,3.77
2023-02-22T10:31:47.042Z,4.63
2023-02-22T10:34:17.450Z,5.10
2023-02-22T10:36:47.394Z,4.83
2023-02-22T10:39:35.075Z,6.23
2023-02-22T10:42:06.572Z,6.70
2023-02-22T10:44:35.813Z,4.73
2023-02-22T10:47:06.437Z,6.30
2023-02-22T10:49:41.644Z,5.10
2023-02-22T10:52:20.233Z,8.30
2023-02-22T10:54:50.324Z,4.00
2023-02-22T10:57:29.915Z,3.70
2023-02-22T10:59:58.287Z,5.37
2023-02-22T11:02:28.536Z,4.53
2023-02-22T11:04:58.390Z,3.67
2023-02-22T11:07:34.060Z,5.97
2023-02-22T11:10:07.157Z,6.07
2023-02-22T11:12:38.830Z,4.33
2023-02-22T11:15:18.266Z,5.23
2023-02-22T11:17:47.263Z,4.17
2023-02-22T11:20:24.689Z,6.13
2023-02-22T11:22:57.142Z,4.97
2023-02-22T11:25:26.663Z,5.57
2023-02-22T11:27:56.003Z,6.53
2023-02-22T11:30:32.409Z,5.90
2023-02-22T11:33:02.507Z,4.33
2023-02-22T11:35:32.632Z,5.47
2023-02-22T11:38:17.925Z,4.17
2023-02-22T11:40:47.111Z,6.90
2023-02-22T11:43:17.740Z,5.60
2023-02-22T11:46:02.260Z,3.50
2023-02-22T11:48:32.708Z,2.97
2023-02-22T11:51:20.176Z,3.67
2023-02-22T11:53:50.919Z,4.17
2023-02-22T11:56:37.977Z,6.30
2023-02-22T11:59:14.892Z,4.03
2023-02-22T12:01:46.350Z,3.73
2023-02-22T12:04:24.328Z,4.53
2023-02-22T12:06:57.943Z,4.27
2023-02-22T12:09:37.595Z,3.90
2023-02-22T12:12:10.462Z,4.07
2023-02-22T12:14:40.037Z,4.43
2023-02-22T12:17:20.156Z,3.43
2023-02-22T12:19:50.918Z,5.83
2023-02-22T12:22:29.464Z,3.33
2023-02-22T12:25:09.912Z,3.67
2023-02-22T12:27:39.047Z,3.17
2023-02-22T12:30:15.392Z,3.83
2023-02-22T12:32:46.735Z,3.93
2023-02-22T12:35:25.644Z,3.33
2023-02-22T12:37:55.903Z,5.13
2023-02-22T12:40:40.406Z,3.00
2023-02-22T12:43:13.475Z,3.67
2023-02-22T12:45:47.027Z,4.80
2023-02-22T12:48:29.146Z,3.53
2023-02-22T12:50:58.658Z,5.30
2023-02-22T12:53:28.883Z,3.17
2023-02-22T12:55:58.358Z,2.70
2023-02-22T12:58:29.817Z,5.93
2023-02-22T13:01:14.427Z,2.27
2023-02-22T13:03:44.391Z,2.50
2023-02-22T13:06:30.095Z,3.03
2023-02-22T13:09:09.246Z,3.23
2023-02-22T13:11:46.192Z,2.80
2023-02-22T13:14:28.714Z,3.27
2023-02-22T13:16:58.935Z,3.57
2023-02-22T13:19:31.829Z,3.23
2023-02-22T13:22:01.931Z,3.27
2023-02-22T13:24:32.169Z,4.87
2023-02-22T13:27:01.644Z,5.30
2023-02-22T13:29:34.453Z,3.40
2023-02-22T13:32:04.505Z,4.20
2023-02-22T13:34:46.666Z,5.07
2023-02-22T13:37:19.036Z,3.57
2023-02-22T13:40:07.247Z,4.53
2023-02-22T13:42:37.539Z,3.53
2023-02-22T13:45:12.954Z,3.30
2023-02-22T13:47:45.784Z,3.07
2023-02-22T13:50:32.852Z,3.10
2023-02-22T13:53:02.367Z,2.57
2023-02-22T13:55:33.440Z,4.13
2023-02-22T13:58:06.500Z,5.30
2023-02-22T14:00:49.031Z,4.20
2023-02-22T14:03:19.225Z,4.93
2023-02-22T14:05:51.132Z,3.67
2023-02-22T14:08:22.386Z,3.90
2023-02-22T14:10:57.760Z,2.27
2023-02-22T14:13:27.314Z,3.13
2023-02-22T14:16:02.938Z,3.27
2023-02-22T14:18:32.477Z,2.60
2023-02-22T14:21:07.905Z,3.27
2023-02-22T14:23:42.924Z,3.13
2023-02-22T14:26:16.395Z,3.70
2023-02-22T14:28:47.054Z,3.53
2023-02-22T14:31:33.345Z,4.00
2023-02-22T14:33:54.242Z,4.70
2023-02-22T14:36:27.545Z,3.70
2023-02-22T14:38:57.391Z,3.67
2023-02-22T14:41:26.899Z,5.13
2023-02-22T14:43:56.738Z,6.03
2023-02-22T14:46:26.769Z,3.83
2023-02-22T14:48:59.350Z,3.63
2023-02-22T14:51:29.922Z,5.00
2023-02-22T14:54:00.147Z,4.93
2023-02-22T14:56:30.258Z,3.23
2023-02-22T14:59:19.101Z,4.07
2023-02-22T15:02:05.763Z,3.07
2023-02-22T15:04:20.573Z,4.20
2023-02-22T15:06:49.455Z,4.57
2023-02-22T15:09:28.507Z,5.30
2023-02-22T15:11:56.527Z,3.57
2023-02-22T15:14:26.942Z,4.10
2023-02-22T15:16:57.358Z,4.17
2023-02-22T15:19:27.755Z,4.93
2023-02-22T15:21:57.260Z,4.63
2023-02-22T15:24:29.425Z,4.03
2023-02-22T15:27:02.671Z,3.77
2023-02-22T15:29:31.330Z,4.63
2023-02-22T15:31:59.376Z,4.60
2023-02-22T15:34:31.754Z,6.07
2023-02-22T15:37:06.642Z,4.77
2023-02-22T15:39:34.948Z,5.67
2023-02-22T15:42:04.974Z,4.63
2023-02-22T15:44:38.059Z,5.90
2023-02-22T15:47:06.431Z,6.37
2023-02-22T15:49:36.930Z,9.67
2023-02-22T15:52:07.093Z,7.63
2023-02-22T15:54:40.038Z,7.93
2023-02-22T15:57:08.836Z,9.80
2023-02-22T15:59:39.994Z,9.87
2023-02-22T16:02:09.174Z,7.77
2023-02-22T16:07:07.548Z,8.50
2023-02-22T16:09:35.516Z,11.77
2023-02-22T16:12:12.562Z,10.47
2023-02-22T16:14:43.111Z,9.53
2023-02-22T16:17:13.448Z,12.13
2023-02-22T16:19:45.274Z,11.07
2023-02-22T16:22:36.273Z,8.53
2023-02-22T16:25:23.046Z,11.63
2023-02-22T16:28:06.360Z,9.40
2023-02-22T16:30:36.602Z,11.37
2023-02-22T16:33:16.844Z,10.33
2023-02-22T16:35:46.456Z,11.97
2023-02-22T16:38:17.034Z,10.90
2023-02-22T16:40:50.930Z,9.00
2023-02-22T16:43:21.056Z,12.37
2023-02-22T16:45:49.553Z,13.00
2023-02-22T16:48:22.115Z,9.20
2023-02-22T16:50:51.470Z,11.80
2023-02-22T16:53:20.469Z,11.13
2023-02-22T16:55:49.765Z,10.33
2023-02-22T17:05:40.782Z,10.88
2023-02-22T17:08:09.762Z,13.03
2023-02-22T17:10:38.533Z,11.90
2023-02-22T17:13:22.146Z,9.90
2023-02-22T17:15:38.176Z,10.33
2023-02-22T17:18:14.709Z,13.03
2023-02-22T17:20:44.118Z,12.10
2023-02-22T17:25:41.618Z,14.47
2023-02-22T17:28:10.914Z,13.27
2023-02-22T17:30:39.207Z,15.70
2023-02-22T17:33:09.148Z,15.50
2023-02-22T17:35:39.903Z,18.43
2023-02-22T17:38:09.210Z,26.07
2023-02-22T17:43:08.009Z,22.82
2023-02-22T17:45:38.675Z,15.30
2023-02-22T17:48:07.708Z,20.00
2023-02-22T17:50:40.783Z,14.77
2023-02-22T17:53:11.150Z,22.03
2023-02-22T17:55:40.673Z,21.43
2023-02-22T17:58:11.297Z,22.53
2023-02-22T18:00:40.457Z,20.50
2023-02-22T18:03:11.295Z,21.40
2023-02-22T18:05:41.619Z,21.97
2023-02-22T18:08:10.157Z,16.70
2023-02-22T18:10:39.233Z,18.33
2023-02-22T18:13:08.832Z,14.30
2023-02-22T18:15:37.831Z,16.27
2023-02-22T18:18:06.998Z,21.60
2023-02-22T18:20:42.974Z,20.87
2023-02-22T18:23:16.674Z,31.67
2023-02-22T18:26:09.094Z,28.50
2023-02-22T18:28:22.968Z,28.40
2023-02-22T18:30:53.369Z,19.63
2023-02-22T18:33:21.844Z,21.17
2023-02-22T18:35:52.953Z,22.63
2023-02-22T18:38:24.790Z,18.93
2023-02-22T18:41:07.442Z,19.40
2023-02-22T18:43:36.232Z,22.10
2023-02-22T18:46:12.585Z,24.63
2023-02-22T18:48:41.553Z,22.00
2023-02-22T18:51:11.892Z,21.10
2023-02-22T18:53:41.183Z,24.47
2023-02-22T18:56:11.170Z,23.30
2023-02-22T18:58:40.176Z,23.00
2023-02-22T19:01:09.361Z,25.80
2023-02-22T19:03:38.643Z,24.57
2023-02-22T19:06:09.879Z,23.20
2023-02-22T19:08:40.550Z,20.53
2023-02-22T19:11:11.953Z,24.40
2023-02-22T19:13:40.043Z,19.37
2023-02-22T19:16:08.845Z,18.83
2023-02-22T19:18:37.813Z,18.47
2023-02-22T19:21:10.300Z,17.47
2023-02-22T19:23:41.229Z,20.13
2023-02-22T19:26:10.102Z,22.30
2023-02-22T19:28:38.928Z,20.87
2023-02-22T19:31:15.153Z,16.33
2023-02-22T19:33:45.240Z,17.57
2023-02-22T19:36:15.872Z,20.10
2023-02-22T19:38:45.441Z,22.50
2023-02-22T19:41:18.396Z,26.60
2023-02-22T19:43:51.361Z,21.53
2023-02-22T19:46:22.078Z,21.67
2023-02-22T19:48:51.966Z,24.27
2023-02-22T19:51:22.370Z,25.73
2023-02-22T19:53:51.247Z,21.03
2023-02-22T19:56:21.768Z,19.67
2023-02-22T19:58:51.608Z,19.77
2023-02-22T20:01:22.985Z,18.67
2023-02-22T20:03:55.721Z,18.87
2023-02-22T20:06:28.171Z,24.70
2023-02-22T20:08:57.313Z,22.80
2023-02-22T20:11:25.813Z,20.63
2023-02-22T20:13:56.123Z,28.47
2023-02-22T20:16:25.031Z,28.20
2023-02-22T20:18:55.047Z,26.23
2023-02-22T20:21:25.176Z,25.10
2023-02-22T20:23:55.358Z,26.40
2023-02-22T20:26:24.630Z,24.87
2023-02-22T20:28:53.250Z,47.33
2023-02-22T20:31:22.378Z,51.20
2023-02-22T20:33:52.806Z,53.23
2023-02-22T20:36:23.604Z,50.30
2023-02-22T20:38:55.900Z,42.47
2023-02-22T20:41:29.080Z,47.43
2023-02-22T20:43:57.898Z,42.47
2023-02-22T20:46:28.001Z,41.37
2023-02-22T20:48:57.638Z,47.43
2023-02-22T20:51:27.203Z,44.43
2023-02-22T20:53:56.363Z,40.80
2023-02-22T20:56:25.593Z,37.73
2023-02-22T20:58:53.726Z,37.70
2023-02-22T21:01:22.708Z,48.20
2023-02-22T21:03:51.949Z,54.70
2023-02-22T21:06:21.734Z,58.33
2023-02-22T21:08:54.657Z,60.97
2023-02-22T21:11:23.611Z,51.83
2023-02-22T21:13:52.156Z,48.47
2023-02-22T21:16:23.644Z,63.83
2023-02-22T21:18:53.716Z,84.57
2023-02-22T21:21:22.755Z,52.03
2023-02-22T21:23:52.572Z,55.10
2023-02-22T21:26:23.901Z,51.53
2023-02-22T21:28:53.782Z,43.37
2023-02-22T21:31:24.603Z,45.97
2023-02-22T21:33:55.381Z,44.60
2023-02-22T21:36:26.162Z,46.53
2023-02-22T21:38:56.106Z,45.10
2023-02-22T21:41:28.019Z,44.27
2023-02-22T21:43:57.070Z,41.60
2023-02-22T21:46:26.813Z,80.47
2023-02-22T21:48:55.376Z,56.43
2023-02-22T21:51:25.716Z,52.03
2023-02-22T21:53:55.414Z,38.77
2023-02-22T21:59:11.447Z,38.55
2023-02-22T22:01:46.214Z,40.57
2023-02-22T22:04:17.030Z,42.60
2023-02-22T22:06:45.749Z,45.80
2023-02-22T22:09:20.214Z,43.00
2023-02-22T22:11:50.159Z,43.03
2023-02-22T22:14:20.336Z,39.43
2023-02-22T22:16:49.974Z,45.97
2023-02-22T22:19:18.667Z,49.17
2023-02-22T22:21:48.408Z,48.07
2023-02-22T22:24:16.877Z,52.03
2023-02-22T22:26:45.463Z,45.97
2023-02-22T22:29:14.498Z,48.00
2023-02-22T22:31:42.610Z,49.17
2023-02-22T22:34:11.749Z,55.03
2023-02-22T22:36:40.145Z,49.07
2023-02-22T22:39:10.746Z,49.70
2023-02-22T22:41:39.486Z,48.07
2023-02-22T22:44:09.714Z,43.73
2023-02-22T22:46:41.769Z,45.17
2023-02-22T22:49:11.459Z,47.43
2023-02-22T22:51:41.367Z,50.03
2023-02-22T22:54:10.697Z,51.03
2023-02-22T22:56:39.948Z,52.53
2023-02-22T22:59:10.151Z,55.43
2023-02-22T23:01:40.933Z,47.90
2023-02-22T23:04:10.848Z,61.80
2023-02-22T23:06:40.694Z,57.30
2023-02-22T23:09:13.584Z,60.77
2023-02-22T23:11:51.076Z,53.83
2023-02-22T23:14:21.171Z,55.50
2023-02-22T23:16:50.591Z,68.67
2023-02-22T23:19:19.743Z,76.83
2023-02-22T23:21:49.138Z,75.47
2023-02-22T23:24:19.385Z,73.73
2023-02-22T23:26:49.812Z,67.60
2023-02-22T23:29:18.846Z,70.10
2023-02-22T23:31:49.011Z,70.50
2023-02-22T23:34:18.283Z,81.10
2023-02-22T23:36:47.623Z,72.30
2023-02-22T23:39:16.660Z,60.53
2023-02-22T23:41:44.685Z,73.67
2023-02-22T23:44:14.722Z,83.03
2023-02-22T23:46:45.292Z,77.53
2023-02-22T23:49:15.438Z,69.33
2023-02-22T23:51:45.399Z,62.23
2023-02-22T23:54:15.476Z,63.43
2023-02-22T23:56:45.709Z,60.07
2023-02-22T23:59:15.103Z,55.47
